Time;durP1;ratioP1;P1;durP2;ratioP2;P2;SDS_P1;SDS_P2;PMS_P1;PMS_P2;Temp;Humidity;BMP_temperature;BMP_pressure;BME280_temperature;BME280_humidity;BME280_pressure;Samples;Min_cycle;Max_cycle;Signal;HPM_P1;HPM_P2
2023/03/29 00:00:04;;;;;;;7.93;4.07;;;;;;;;;;4954562;29;20038;-77
2023/03/29 00:02:32;;;;;;;4.68;3.22;;;;;;;;;;4954551;29;20023;-77
2023/03/29 00:05:03;;;;;;;4.93;3.83;;;;;;;;;;4954526;29;20020;-77
2023/03/29 00:07:32;;;;;;;5.53;3.47;;;;;;;;;;4936977;29;20027;-77
2023/03/29 00:09:58;;;;;;;6.70;3.38;;;;;;;;;;4954317;29;20122;-77
2023/03/29 00:12:24;;;;;;;7.15;3.85;;;;;;;;;;4954267;29;20092;-77
2023/03/29 00:14:51;;;;;;;5.55;3.35;;;;;;;;;;4954236;29;20152;-77
2023/03/29 00:17:17;;;;;;;8.98;3.53;;;;;;;;;;4956834;28;20366;-77
2023/03/29 00:19:46;;;;;;;4.97;3.05;;;;;;;;;;4957882;29;20035;-77
2023/03/29 00:22:12;;;;;;;5.75;3.40;;;;;;;;;;4958077;29;20428;-77
2023/03/29 00:24:38;;;;;;;5.60;3.20;;;;;;;;;;4957814;29;20028;-77
2023/03/29 00:27:04;;;;;;;7.60;3.30;;;;;;;;;;4957971;29;20382;-77
2023/03/29 00:29:31;;;;;;;3.65;3.15;;;;;;;;;;4957611;29;20054;-77
2023/03/29 00:31:57;;;;;;;5.30;3.53;;;;;;;;;;4957908;29;20027;-77
2023/03/29 00:34:23;;;;;;;5.43;3.42;;;;;;;;;;4957484;29;20114;-77
2023/03/29 00:36:49;;;;;;;4.15;3.03;;;;;;;;;;4957558;29;20023;-77
2023/03/29 00:39:19;;;;;;;5.13;3.22;;;;;;;;;;4957930;29;20038;-77
2023/03/29 00:41:48;;;;;;;4.95;3.08;;;;;;;;;;4957400;29;20027;-76
2023/03/29 00:44:33;;;;;;;4.57;3.08;;;;;;;;;;4957431;29;20078;-77
2023/03/29 00:46:59;;;;;;;4.07;3.22;;;;;;;;;;4957385;29;20027;-77
2023/03/29 00:49:25;;;;;;;7.03;3.03;;;;;;;;;;4956090;29;20047;-77
2023/03/29 00:51:51;;;;;;;5.95;3.20;;;;;;;;;;4957418;29;20034;-77
2023/03/29 00:54:18;;;;;;;4.60;3.35;;;;;;;;;;4957244;29;20082;-77
2023/03/29 00:56:46;;;;;;;4.93;3.20;;;;;;;;;;4957454;29;20034;-77
2023/03/29 00:59:19;;;;;;;5.13;3.30;;;;;;;;;;4957210;29;20042;-77
2023/03/29 01:01:53;;;;;;;4.88;2.67;;;;;;;;;;4957099;29;20029;-77
2023/03/29 01:04:44;;;;;;;4.80;3.17;;;;;;;;;;4957086;29;20027;-77
2023/03/29 01:07:12;;;;;;;7.15;2.80;;;;;;;;;;4957045;29;20042;-77
2023/03/29 01:09:39;;;;;;;5.70;2.80;;;;;;;;;;4957194;29;20032;-77
2023/03/29 01:12:11;;;;;;;7.38;2.95;;;;;;;;;;4957202;29;20050;-77
2023/03/29 01:14:37;;;;;;;5.28;2.70;;;;;;;;;;4956922;29;20461;-77
2023/03/29 01:17:03;;;;;;;5.55;3.03;;;;;;;;;;4956823;29;20520;-77
2023/03/29 01:19:32;;;;;;;5.00;2.63;;;;;;;;;;4956897;29;20027;-77
2023/03/29 01:22:00;;;;;;;4.28;2.72;;;;;;;;;;4939358;29;20031;-77
2023/03/29 01:24:29;;;;;;;6.05;2.10;;;;;;;;;;4956995;29;20027;-76
2023/03/29 01:27:08;;;;;;;6.53;2.50;;;;;;;;;;4956309;28;20029;-77
2023/03/29 01:29:34;;;;;;;6.63;3.42;;;;;;;;;;4956281;29;20038;-77
2023/03/29 01:32:07;;;;;;;5.93;2.95;;;;;;;;;;4939238;29;20027;-77
2023/03/29 01:34:33;;;;;;;4.15;2.80;;;;;;;;;;4956620;29;20106;-77
2023/03/29 01:37:10;;;;;;;7.03;3.65;;;;;;;;;;4956629;29;20078;-77
2023/03/29 01:39:36;;;;;;;5.10;2.67;;;;;;;;;;4956891;29;20155;-77
2023/03/29 01:42:15;;;;;;;4.25;2.70;;;;;;;;;;4939087;29;20028;-77
2023/03/29 01:44:41;;;;;;;4.55;2.55;;;;;;;;;;4956494;29;20042;-77
2023/03/29 01:47:13;;;;;;;6.65;3.17;;;;;;;;;;4956300;29;20035;-77
2023/03/29 01:49:45;;;;;;;4.57;2.80;;;;;;;;;;4955929;29;20107;-77
2023/03/29 01:52:16;;;;;;;4.95;2.97;;;;;;;;;;4956292;29;20037;-77
2023/03/29 01:54:52;;;;;;;5.50;3.05;;;;;;;;;;4939010;29;20377;-77
2023/03/29 01:57:19;;;;;;;4.03;2.40;;;;;;;;;;4956084;29;20035;-77
2023/03/29 01:59:46;;;;;;;5.63;3.25;;;;;;;;;;4956136;29;20355;-77
2023/03/29 02:02:14;;;;;;;5.13;3.00;;;;;;;;;;4956343;29;20119;-77
2023/03/29 02:04:44;;;;;;;4.90;2.80;;;;;;;;;;4955950;29;20409;-77
2023/03/29 02:07:10;;;;;;;;;;;;;;;;;;4956561;29;20086;-77
2023/03/29 02:09:38;;;;;;;5.72;2.38;;;;;;;;;;4956128;29;19918;-76
2023/03/29 02:12:05;;;;;;;7.60;3.17;;;;;;;;;;4955823;29;20027;-76
2023/03/29 02:14:31;;;;;;;3.55;2.75;;;;;;;;;;4955821;29;20106;-76
2023/03/29 02:17:08;;;;;;;4.45;2.80;;;;;;;;;;4955736;29;20043;-76
2023/03/29 02:19:34;;;;;;;5.95;2.88;;;;;;;;;;4955743;29;20416;-76
2023/03/29 02:22:05;;;;;;;3.85;2.80;;;;;;;;;;4955602;29;20461;-76
2023/03/29 02:24:32;;;;;;;5.55;3.20;;;;;;;;;;4955930;29;20027;-76
2023/03/29 02:26:58;;;;;;;5.20;2.45;;;;;;;;;;4955571;29;20106;-76
2023/03/29 02:29:25;;;;;;;4.32;2.60;;;;;;;;;;4938203;29;20035;-76
2023/03/29 02:31:53;;;;;;;6.28;2.70;;;;;;;;;;4955507;29;20031;-76
2023/03/29 02:34:22;;;;;;;4.88;2.72;;;;;;;;;;4955387;29;20038;-76
2023/03/29 02:36:57;;;;;;;8.25;2.78;;;;;;;;;;4955393;29;20039;-76
2023/03/29 02:39:24;;;;;;;4.28;2.85;;;;;;;;;;4955210;28;20027;-76
2023/03/29 02:41:51;;;;;;;3.80;2.53;;;;;;;;;;4955429;29;20102;-76
2023/03/29 02:44:20;;;;;;;5.78;2.78;;;;;;;;;;4954810;29;20039;-76
2023/03/29 02:46:47;;;;;;;6.32;2.78;;;;;;;;;;4955201;29;20492;-76
2023/03/29 02:49:13;;;;;;;4.93;3.13;;;;;;;;;;4955160;29;20058;-76
2023/03/29 02:51:40;;;;;;;2.85;1.98;;;;;;;;;;4955174;29;20110;-77
2023/03/29 02:54:09;;;;;;;6.15;2.90;;;;;;;;;;4955158;29;20027;-76
2023/03/29 02:56:48;;;;;;;4.35;2.75;;;;;;;;;;4955093;29;20032;-76
2023/03/29 02:59:15;;;;;;;4.07;2.78;;;;;;;;;;4955270;29;20539;-77
2023/03/29 03:01:41;;;;;;;4.28;2.58;;;;;;;;;;4954931;29;20030;-76
2023/03/29 03:04:08;;;;;;;5.07;3.17;;;;;;;;;;4954887;29;20721;-76
2023/03/29 03:06:36;;;;;;;4.93;2.72;;;;;;;;;;4937261;29;20016;-76
2023/03/29 03:09:03;;;;;;;8.50;3.05;;;;;;;;;;4935969;29;20071;-76
2023/03/29 03:11:29;;;;;;;7.43;3.45;;;;;;;;;;4935945;29;20086;-76
2023/03/29 03:13:55;;;;;;;4.05;2.70;;;;;;;;;;4935608;29;20419;-76
2023/03/29 03:16:22;;;;;;;5.20;3.85;;;;;;;;;;4935591;29;20035;-76
2023/03/29 03:18:50;;;;;;;7.18;3.55;;;;;;;;;;4935576;29;20020;-76
2023/03/29 03:21:16;;;;;;;4.82;3.03;;;;;;;;;;4935634;29;20107;-76
2023/03/29 03:23:44;;;;;;;4.95;3.25;;;;;;;;;;4935733;29;20438;-76
2023/03/29 03:26:11;;;;;;;6.20;3.05;;;;;;;;;;4935514;29;20055;-76
2023/03/29 03:28:40;;;;;;;7.78;3.17;;;;;;;;;;4935323;29;20038;-76
2023/03/29 03:31:07;;;;;;;4.35;3.50;;;;;;;;;;4935727;29;20040;-76
2023/03/29 03:33:33;;;;;;;6.97;3.20;;;;;;;;;;4935410;29;20020;-76
2023/03/29 03:36:03;;;;;;;7.47;3.92;;;;;;;;;;4950301;29;20037;-76
2023/03/29 03:38:29;;;;;;;7.30;4.15;;;;;;;;;;4955160;29;20023;-77
2023/03/29 03:40:56;;;;;;;6.35;3.83;;;;;;;;;;4954707;29;20434;-76
2023/03/29 03:43:22;;;;;;;9.25;3.95;;;;;;;;;;4954449;29;20019;-76
2023/03/29 03:45:48;;;;;;;11.95;5.78;;;;;;;;;;4954418;29;20102;-76
2023/03/29 03:48:15;;;;;;;8.85;4.47;;;;;;;;;;4953520;29;20047;-76
2023/03/29 03:50:42;;;;;;;8.68;4.80;;;;;;;;;;4954649;28;20046;-76
2023/03/29 03:53:08;;;;;;;7.88;4.55;;;;;;;;;;4958703;29;20162;-76
2023/03/29 03:55:34;;;;;;;8.05;4.45;;;;;;;;;;4958287;29;20474;-76
2023/03/29 03:58:00;;;;;;;8.27;5.05;;;;;;;;;;4958304;29;20023;-76
2023/03/29 04:00:26;;;;;;;7.60;5.13;;;;;;;;;;4958540;29;20028;-76
2023/03/29 04:02:55;;;;;;;8.57;5.20;;;;;;;;;;4958494;29;20031;-76
2023/03/29 04:05:24;;;;;;;9.80;4.88;;;;;;;;;;4958154;29;20023;-76
2023/03/29 04:07:51;;;;;;;9.85;5.63;;;;;;;;;;4958210;29;20023;-76
2023/03/29 04:10:17;;;;;;;9.73;5.30;;;;;;;;;;4957988;29;20082;-77
2023/03/29 04:12:43;;;;;;;7.70;5.28;;;;;;;;;;4957628;29;20106;-77
2023/03/29 04:15:09;;;;;;;10.23;5.68;;;;;;;;;;4958091;29;20035;-76
2023/03/29 04:17:35;;;;;;;8.93;6.28;;;;;;;;;;4957948;29;20109;-76
2023/03/29 04:20:08;;;;;;;10.20;6.07;;;;;;;;;;4958143;29;20091;-76
2023/03/29 04:22:34;;;;;;;11.85;5.93;;;;;;;;;;4958104;29;20536;-76
2023/03/29 04:25:00;;;;;;;8.60;6.07;;;;;;;;;;4957809;29;20023;-76
2023/03/29 04:27:33;;;;;;;9.73;6.18;;;;;;;;;;4957919;28;20078;-76
2023/03/29 04:30:00;;;;;;;10.52;6.53;;;;;;;;;;4957659;29;20462;-76
2023/03/29 04:32:26;;;;;;;9.07;6.47;;;;;;;;;;4957880;29;20358;-76
2023/03/29 04:34:52;;;;;;;13.18;6.40;;;;;;;;;;4957847;29;20102;-76
2023/03/29 04:37:20;;;;;;;11.05;6.93;;;;;;;;;;4957589;29;20055;-77
2023/03/29 04:39:47;;;;;;;12.27;7.38;;;;;;;;;;4957800;29;20110;-77
2023/03/29 04:42:13;;;;;;;12.90;6.82;;;;;;;;;;4957524;29;20028;-76
2023/03/29 04:44:41;;;;;;;13.20;7.18;;;;;;;;;;4957429;29;20039;-77
2023/03/29 04:47:07;;;;;;;11.48;6.68;;;;;;;;;;4957711;29;20097;-76
2023/03/29 04:49:33;;;;;;;13.20;6.85;;;;;;;;;;4957256;29;20129;-76
2023/03/29 04:51:59;;;;;;;10.77;6.50;;;;;;;;;;4957197;28;20430;-77
2023/03/29 04:54:26;;;;;;;10.07;6.47;;;;;;;;;;4957579;29;20029;-76
2023/03/29 04:56:52;;;;;;;11.15;7.25;;;;;;;;;;4957297;29;20109;-76
2023/03/29 04:59:18;;;;;;;12.23;6.60;;;;;;;;;;4939810;29;20143;-77
2023/03/29 05:01:45;;;;;;;13.65;7.35;;;;;;;;;;4956964;28;20498;-76
2023/03/29 05:04:12;;;;;;;10.10;6.85;;;;;;;;;;4957049;29;20042;-76
2023/03/29 05:06:38;;;;;;;10.57;7.25;;;;;;;;;;4957096;29;20019;-76
2023/03/29 05:09:05;;;;;;;11.55;7.25;;;;;;;;;;4957253;29;20110;-77
2023/03/29 05:11:32;;;;;;;12.05;6.80;;;;;;;;;;4956930;29;20107;-76
2023/03/29 05:14:01;;;;;;;10.48;7.25;;;;;;;;;;4957043;29;20034;-77
2023/03/29 05:16:28;;;;;;;11.10;6.53;;;;;;;;;;4957503;29;20047;-76
2023/03/29 05:18:55;;;;;;;12.63;6.93;;;;;;;;;;4957071;29;20020;-76
2023/03/29 05:21:21;;;;;;;14.10;6.85;;;;;;;;;;4956742;29;20031;-76
2023/03/29 05:23:47;;;;;;;10.52;6.82;;;;;;;;;;4956731;29;20038;-76
2023/03/29 05:26:14;;;;;;;11.95;7.43;;;;;;;;;;4956648;29;20095;-76
2023/03/29 05:28:40;;;;;;;12.45;7.53;;;;;;;;;;4956675;29;20023;-76
2023/03/29 05:31:06;;;;;;;14.48;7.47;;;;;;;;;;4956363;29;20389;-76
2023/03/29 05:33:33;;;;;;;13.05;8.27;;;;;;;;;;4956162;29;20570;-76
2023/03/29 05:36:00;;;;;;;15.73;8.95;;;;;;;;;;4956486;29;20024;-76
2023/03/29 05:38:26;;;;;;;13.98;7.90;;;;;;;;;;4956164;29;20046;-76
2023/03/29 05:40:52;;;;;;;11.70;7.15;;;;;;;;;;4956372;29;20078;-77
2023/03/29 05:43:18;;;;;;;12.98;7.30;;;;;;;;;;4956421;29;20031;-77
2023/03/29 05:45:44;;;;;;;12.77;7.90;;;;;;;;;;4956401;29;20031;-76
2023/03/29 05:48:10;;;;;;;12.77;7.60;;;;;;;;;;4956258;29;20075;-77
2023/03/29 05:50:36;;;;;;;15.10;8.07;;;;;;;;;;4939069;29;20032;-76
2023/03/29 05:53:02;;;;;;;12.15;8.38;;;;;;;;;;4956221;29;20034;-77
2023/03/29 05:55:28;;;;;;;13.60;8.23;;;;;;;;;;4956249;29;20028;-76
2023/03/29 05:57:55;;;;;;;13.65;8.20;;;;;;;;;;4938912;29;20059;-76
2023/03/29 06:00:25;;;;;;;13.48;8.15;;;;;;;;;;4955920;29;20046;-76
2023/03/29 06:02:52;;;;;;;13.10;8.02;;;;;;;;;;4955965;29;20027;-77
2023/03/29 06:05:19;;;;;;;15.68;8.50;;;;;;;;;;4955857;29;20023;-77
2023/03/29 06:07:47;;;;;;;12.02;7.88;;;;;;;;;;4938387;29;20094;-77
2023/03/29 06:10:14;;;;;;;12.48;8.35;;;;;;;;;;4956127;29;20118;-77
2023/03/29 06:12:40;;;;;;;12.85;7.90;;;;;;;;;;4956170;29;20450;-77
2023/03/29 06:15:07;;;;;;;12.18;7.47;;;;;;;;;;4955660;28;20115;-77
2023/03/29 06:17:33;;;;;;;13.75;8.40;;;;;;;;;;4955755;29;20054;-77
2023/03/29 06:19:59;;;;;;;11.82;8.00;;;;;;;;;;4955803;29;20027;-77
2023/03/29 06:22:26;;;;;;;12.13;7.85;;;;;;;;;;4955576;29;20034;-77
2023/03/29 06:24:53;;;;;;;12.90;8.52;;;;;;;;;;4955737;29;20062;-77
2023/03/29 06:27:21;;;;;;;13.40;8.82;;;;;;;;;;4938359;29;20101;-77
2023/03/29 06:29:47;;;;;;;12.55;8.32;;;;;;;;;;4955623;29;20129;-77
2023/03/29 06:32:13;;;;;;;12.27;8.20;;;;;;;;;;4955797;29;20421;-77
2023/03/29 06:34:39;;;;;;;11.68;8.77;;;;;;;;;;4955752;29;20054;-77
2023/03/29 06:37:05;;;;;;;11.57;7.57;;;;;;;;;;4955652;29;20024;-77
2023/03/29 06:39:31;;;;;;;12.93;7.85;;;;;;;;;;4955509;29;20035;-77
2023/03/29 06:41:58;;;;;;;10.50;7.40;;;;;;;;;;4938154;29;20031;-77
2023/03/29 06:44:27;;;;;;;14.95;8.05;;;;;;;;;;4955369;29;20115;-77
2023/03/29 06:46:53;;;;;;;15.73;7.68;;;;;;;;;;4955422;29;20054;-77
2023/03/29 06:49:19;;;;;;;14.13;8.27;;;;;;;;;;4953715;29;20051;-77
2023/03/29 06:51:45;;;;;;;11.77;7.00;;;;;;;;;;4955395;29;20019;-77
2023/03/29 06:54:12;;;;;;;14.82;8.60;;;;;;;;;;4956772;29;20082;-78
2023/03/29 06:56:38;;;;;;;15.52;9.20;;;;;;;;;;4956864;29;20059;-77
2023/03/29 06:59:04;;;;;;;12.60;9.15;;;;;;;;;;4956488;29;20078;-78
2023/03/29 07:01:30;;;;;;;14.70;9.20;;;;;;;;;;4939335;29;20027;-78
2023/03/29 07:03:57;;;;;;;14.30;7.13;;;;;;;;;;4957660;29;20035;-78
2023/03/29 07:06:23;;;;;;;12.32;6.95;;;;;;;;;;4941614;29;20078;-78
2023/03/29 07:08:51;;;;;;;13.52;8.07;;;;;;;;;;4955659;29;20035;-77
2023/03/29 07:11:19;;;;;;;11.38;7.70;;;;;;;;;;4955399;28;20027;-77
2023/03/29 07:13:47;;;;;;;9.98;7.15;;;;;;;;;;4956136;29;20023;-77
2023/03/29 07:16:13;;;;;;;11.50;7.45;;;;;;;;;;4939162;29;20413;-78
2023/03/29 07:18:40;;;;;;;11.98;7.07;;;;;;;;;;4956407;29;20490;-77
2023/03/29 07:21:06;;;;;;;11.07;6.53;;;;;;;;;;4957479;28;20110;-77
2023/03/29 07:23:32;;;;;;;11.63;6.65;;;;;;;;;;4955885;28;20038;-78
2023/03/29 07:25:59;;;;;;;9.15;6.45;;;;;;;;;;4954225;28;20485;-77
2023/03/29 07:28:25;;;;;;;11.70;6.97;;;;;;;;;;4958626;28;20436;-78
2023/03/29 07:30:51;;;;;;;10.93;6.57;;;;;;;;;;4962395;28;20039;-78
2023/03/29 07:33:18;;;;;;;11.20;6.65;;;;;;;;;;4967089;28;20749;-78
2023/03/29 07:35:46;;;;;;;11.00;6.78;;;;;;;;;;4961783;28;20019;-77
2023/03/29 07:38:14;;;;;;;10.93;6.30;;;;;;;;;;4954445;29;20019;-77
2023/03/29 07:40:40;;;;;;;8.93;6.50;;;;;;;;;;4954431;29;20034;-77
2023/03/29 07:43:09;;;;;;;9.02;6.47;;;;;;;;;;4955449;29;20032;-79
2023/03/29 07:45:35;;;;;;;10.10;6.55;;;;;;;;;;4955039;29;20024;-77
2023/03/29 07:48:01;;;;;;;11.85;6.38;;;;;;;;;;4950391;28;20499;-78
2023/03/29 07:50:31;;;;;;;11.75;6.13;;;;;;;;;;4935281;29;20070;-78
2023/03/29 07:52:57;;;;;;;13.40;7.33;;;;;;;;;;4960775;28;20028;-78
2023/03/29 07:55:23;;;;;;;11.40;6.70;;;;;;;;;;4951508;29;20126;-78
2023/03/29 07:57:49;;;;;;;10.10;6.75;;;;;;;;;;4952751;28;20038;-78
2023/03/29 08:00:16;;;;;;;12.63;6.97;;;;;;;;;;4952849;29;20031;-77
2023/03/29 08:02:46;;;;;;;10.93;7.78;;;;;;;;;;4952731;29;20100;-78
2023/03/29 08:05:13;;;;;;;12.52;7.10;;;;;;;;;;4952775;29;20031;-78
2023/03/29 08:07:41;;;;;;;8.90;6.50;;;;;;;;;;4935137;29;20031;-78
2023/03/29 08:10:08;;;;;;;13.13;7.68;;;;;;;;;;4954745;28;20043;-78
2023/03/29 08:12:36;;;;;;;10.50;6.57;;;;;;;;;;4951633;29;20059;-78
2023/03/29 08:15:02;;;;;;;11.93;7.15;;;;;;;;;;4942164;29;20034;-78
2023/03/29 08:17:28;;;;;;;11.93;6.70;;;;;;;;;;4952268;29;20027;-78
2023/03/29 08:19:54;;;;;;;10.02;6.43;;;;;;;;;;4935423;29;20031;-78
2023/03/29 08:22:20;;;;;;;11.23;7.05;;;;;;;;;;4952958;29;20027;-78
2023/03/29 08:24:46;;;;;;;11.60;6.90;;;;;;;;;;4949712;28;20055;-78
2023/03/29 08:27:13;;;;;;;10.93;6.28;;;;;;;;;;4956064;29;20027;-78
2023/03/29 08:29:39;;;;;;;11.98;7.18;;;;;;;;;;4958988;29;20051;-78
2023/03/29 08:32:05;;;;;;;10.52;6.10;;;;;;;;;;4955397;29;20027;-78
2023/03/29 08:34:31;;;;;;;9.45;6.47;;;;;;;;;;4957086;28;20020;-78
2023/03/29 08:36:58;;;;;;;12.20;6.68;;;;;;;;;;4956335;28;20031;-78
2023/03/29 08:39:24;;;;;;;11.32;6.43;;;;;;;;;;4955823;28;20118;-78
2023/03/29 08:42:13;;;;;;;12.82;7.78;;;;;;;;;;4956009;29;20027;-78
2023/03/29 08:44:42;;;;;;;11.18;6.63;;;;;;;;;;4940943;29;20502;-77
2023/03/29 08:47:17;;;;;;;12.35;6.30;;;;;;;;;;4957091;29;20237;-78
2023/03/29 08:49:47;;;;;;;13.43;7.25;;;;;;;;;;4955432;29;20039;-80
2023/03/29 08:52:20;;;;;;;9.75;6.55;;;;;;;;;;4938676;29;20035;-80
2023/03/29 08:54:48;;;;;;;11.40;6.72;;;;;;;;;;4958119;29;20098;-80
2023/03/29 08:57:20;;;;;;;11.93;7.13;;;;;;;;;;4956470;28;20034;-80
2023/03/29 08:59:48;;;;;;;13.23;6.93;;;;;;;;;;4950863;29;20452;-80
2023/03/29 09:02:19;;;;;;;11.63;6.93;;;;;;;;;;4943637;29;20023;-80
2023/03/29 09:04:47;;;;;;;17.40;7.80;;;;;;;;;;4955988;29;20432;-79
2023/03/29 09:07:15;;;;;;;10.23;6.82;;;;;;;;;;4945022;28;20015;-80
2023/03/29 09:09:41;;;;;;;10.35;6.72;;;;;;;;;;4958337;28;20075;-79
2023/03/29 09:12:19;;;;;;;15.25;7.50;;;;;;;;;;4961500;28;20027;-80
2023/03/29 09:14:51;;;;;;;14.32;7.18;;;;;;;;;;4965488;28;20030;-80
2023/03/29 09:17:20;;;;;;;14.35;6.97;;;;;;;;;;4968161;28;20090;-80
2023/03/29 09:20:07;;;;;;;12.32;7.50;;;;;;;;;;4959027;28;20457;-79
2023/03/29 09:22:41;;;;;;;11.02;7.35;;;;;;;;;;4896060;29;20031;-79
2023/03/29 09:25:20;;;;;;;14.13;7.82;;;;;;;;;;4963576;28;20030;-78
2023/03/29 09:28:09;;;;;;;16.42;7.75;;;;;;;;;;4957069;28;20046;-78
2023/03/29 09:30:40;;;;;;;12.48;7.38;;;;;;;;;;4939881;29;20387;-78
2023/03/29 09:33:15;;;;;;;15.25;8.35;;;;;;;;;;4960204;29;20386;-78
2023/03/29 09:36:01;;;;;;;20.02;9.10;;;;;;;;;;4957154;29;20098;-78
2023/03/29 09:38:28;;;;;;;13.38;7.40;;;;;;;;;;4955534;29;20102;-79
2023/03/29 09:40:56;;;;;;;16.55;9.38;;;;;;;;;;4939710;29;20031;-78
2023/03/29 09:43:31;;;;;;;14.05;7.80;;;;;;;;;;4966144;28;20027;-79
2023/03/29 09:45:58;;;;;;;13.80;8.40;;;;;;;;;;4965213;28;20110;-78
2023/03/29 09:48:25;;;;;;;13.98;7.90;;;;;;;;;;4963438;28;20039;-79
2023/03/29 09:50:51;;;;;;;14.00;7.60;;;;;;;;;;4973513;28;20114;-79
2023/03/29 09:53:18;;;;;;;14.30;8.27;;;;;;;;;;4961838;28;20525;-79
2023/03/29 09:55:45;;;;;;;15.32;8.07;;;;;;;;;;4938128;29;20405;-79
2023/03/29 09:58:16;;;;;;;15.52;8.32;;;;;;;;;;4942940;29;20048;-79
2023/03/29 10:00:43;;;;;;;13.65;8.10;;;;;;;;;;4938524;29;20110;-79
2023/03/29 10:03:10;;;;;;;14.77;8.68;;;;;;;;;;4956022;29;20051;-79
2023/03/29 10:05:37;;;;;;;11.98;8.27;;;;;;;;;;4956579;29;20031;-79
2023/03/29 10:08:12;;;;;;;20.85;11.48;;;;;;;;;;4956449;29;20033;-79
2023/03/29 10:10:38;;;;;;;22.50;10.07;;;;;;;;;;4959015;28;20549;-79
2023/03/29 10:13:06;;;;;;;19.23;10.57;;;;;;;;;;4955718;29;20119;-78
2023/03/29 10:15:33;;;;;;;21.38;11.30;;;;;;;;;;4955370;28;20106;-79
2023/03/29 10:18:06;;;;;;;24.00;10.95;;;;;;;;;;4956476;29;20031;-79
2023/03/29 10:20:35;;;;;;;22.67;12.70;;;;;;;;;;4950369;29;20027;-79
2023/03/29 10:23:01;;;;;;;21.50;12.20;;;;;;;;;;4956032;28;20100;-79
2023/03/29 10:25:31;;;;;;;18.88;11.25;;;;;;;;;;4956154;28;20035;-79
2023/03/29 10:28:19;;;;;;;20.30;12.35;;;;;;;;;;4956934;29;20096;-79
2023/03/29 10:30:51;;;;;;;23.60;12.43;;;;;;;;;;4941868;29;20106;-79
2023/03/29 10:33:20;;;;;;;26.15;12.75;;;;;;;;;;4956752;29;20497;-79
2023/03/29 10:35:47;;;;;;;25.65;12.02;;;;;;;;;;4938170;28;20394;-79
2023/03/29 10:38:16;;;;;;;23.38;12.75;;;;;;;;;;4955504;29;20058;-79
2023/03/29 10:40:46;;;;;;;26.08;13.55;;;;;;;;;;4957544;29;20548;-80
2023/03/29 10:43:24;;;;;;;26.90;14.18;;;;;;;;;;4962173;28;20027;-81
2023/03/29 10:45:52;;;;;;;25.88;14.60;;;;;;;;;;4967930;28;20031;-80
2023/03/29 10:48:24;;;;;;;28.20;14.85;;;;;;;;;;4959288;28;20094;-80
2023/03/29 10:50:52;;;;;;;29.50;15.75;;;;;;;;;;4962426;28;20110;-81
2023/03/29 10:53:21;;;;;;;25.30;14.60;;;;;;;;;;4956741;29;20035;-81
2023/03/29 10:55:54;;;;;;;26.20;16.70;;;;;;;;;;4961031;29;20110;-81
2023/03/29 10:58:20;;;;;;;34.45;15.57;;;;;;;;;;4961741;29;20027;-81
2023/03/29 11:00:51;;;;;;;26.05;15.05;;;;;;;;;;4961642;28;20066;-81
2023/03/29 11:03:36;;;;;;;27.77;16.10;;;;;;;;;;4963033;29;20087;-80
2023/03/29 11:06:17;;;;;;;30.73;16.45;;;;;;;;;;4962716;29;20033;-81
2023/03/29 11:08:50;;;;;;;31.60;15.45;;;;;;;;;;4963809;29;20050;-81
2023/03/29 11:11:22;;;;;;;27.00;15.27;;;;;;;;;;4962989;28;20019;-81
2023/03/29 11:14:04;;;;;;;31.42;16.83;;;;;;;;;;4967374;28;20087;-81
2023/03/29 11:16:40;;;;;;;34.08;16.67;;;;;;;;;;4967916;29;20027;-81
2023/03/29 11:19:14;;;;;;;33.53;16.25;;;;;;;;;;4963599;29;20019;-81
2023/03/29 11:21:47;;;;;;;28.40;15.70;;;;;;;;;;4967569;29;20038;-81
2023/03/29 11:24:32;;;;;;;28.45;14.65;;;;;;;;;;4959550;28;20054;-81
2023/03/29 11:27:17;;;;;;;30.10;15.55;;;;;;;;;;4955063;28;20110;-81
2023/03/29 11:29:48;;;;;;;25.48;15.20;;;;;;;;;;4959580;28;20035;-81
2023/03/29 11:32:16;;;;;;;28.35;15.23;;;;;;;;;;4954713;29;20505;-80
2023/03/29 11:35:02;;;;;;;27.92;16.40;;;;;;;;;;4954167;28;20031;-81
2023/03/29 11:37:47;;;;;;;26.52;16.45;;;;;;;;;;4945515;29;20106;-81
2023/03/29 11:40:35;;;;;;;27.77;16.85;;;;;;;;;;4951557;29;20023;-81
2023/03/29 11:43:03;;;;;;;28.55;16.33;;;;;;;;;;4957414;28;20030;-81
2023/03/29 11:45:38;;;;;;;25.58;17.02;;;;;;;;;;4958474;29;20027;-81
2023/03/29 11:48:06;;;;;;;33.58;18.58;;;;;;;;;;4954480;28;20023;-80
2023/03/29 11:50:47;;;;;;;27.10;16.58;;;;;;;;;;4961757;28;20159;-80
2023/03/29 11:53:16;;;;;;;26.38;17.30;;;;;;;;;;4961266;29;20063;-80
2023/03/29 11:55:47;;;;;;;27.88;16.95;;;;;;;;;;4941022;29;20091;-80
2023/03/29 11:58:16;;;;;;;25.75;16.70;;;;;;;;;;4948319;29;20483;-80
2023/03/29 12:00:45;;;;;;;31.35;18.25;;;;;;;;;;4942815;29;20503;-80
2023/03/29 12:03:13;;;;;;;29.40;17.83;;;;;;;;;;4960606;29;20047;-80
2023/03/29 12:05:43;;;;;;;28.10;17.80;;;;;;;;;;4965169;28;20265;-81
2023/03/29 12:08:13;;;;;;;27.73;17.30;;;;;;;;;;4938547;29;20042;-81
2023/03/29 12:10:49;;;;;;;27.77;18.75;;;;;;;;;;4942145;29;20554;-81
2023/03/29 12:13:33;;;;;;;30.63;17.90;;;;;;;;;;4958758;28;20091;-81
2023/03/29 12:16:13;;;;;;;29.73;18.65;;;;;;;;;;4945306;29;20031;-81
2023/03/29 12:18:39;;;;;;;;;;;;;;;;;;4966048;29;20039;-81
2023/03/29 12:21:08;;;;;;;26.83;17.67;;;;;;;;;;4949615;28;19911;-81
2023/03/29 12:23:34;;;;;;;26.63;18.23;;;;;;;;;;4959671;29;20027;-81
2023/03/29 12:26:01;;;;;;;22.77;16.33;;;;;;;;;;4960600;29;20067;-81
2023/03/29 12:28:27;;;;;;;23.67;15.82;;;;;;;;;;4963498;29;20478;-81
2023/03/29 12:31:03;;;;;;;25.60;15.20;;;;;;;;;;4966887;29;20035;-81
2023/03/29 12:33:29;;;;;;;20.25;15.07;;;;;;;;;;4960708;29;20438;-80
2023/03/29 12:36:09;;;;;;;21.02;13.82;;;;;;;;;;4962171;29;20377;-81
2023/03/29 12:38:36;;;;;;;19.80;13.50;;;;;;;;;;4963046;29;20024;-81
2023/03/29 12:41:09;;;;;;;20.40;13.85;;;;;;;;;;4961548;29;20473;-81
2023/03/29 12:43:40;;;;;;;22.23;13.63;;;;;;;;;;4963171;29;20027;-80
2023/03/29 12:46:07;;;;;;;21.70;14.18;;;;;;;;;;4963421;29;20055;-81
2023/03/29 12:48:36;;;;;;;20.63;13.32;;;;;;;;;;4954281;29;20079;-80
2023/03/29 12:51:03;;;;;;;21.20;13.43;;;;;;;;;;4957490;29;20031;-81
2023/03/29 12:53:38;;;;;;;22.15;14.05;;;;;;;;;;4958016;28;20040;-80
2023/03/29 12:56:07;;;;;;;22.77;14.35;;;;;;;;;;4954172;29;20031;-81
2023/03/29 12:58:37;;;;;;;20.58;13.85;;;;;;;;;;4965871;29;20015;-81
2023/03/29 13:01:03;;;;;;;;;;;;;;;;;;4944942;29;20027;-81
2023/03/29 13:03:36;;;;;;;21.08;14.13;;;;;;;;;;4961226;28;19910;-81
2023/03/29 13:06:03;;;;;;;16.70;13.00;;;;;;;;;;4962371;29;20546;-81
2023/03/29 13:08:32;;;;;;;20.45;14.15;;;;;;;;;;4960342;29;20042;-81
2023/03/29 13:10:59;;;;;;;21.90;14.50;;;;;;;;;;4943924;29;20042;-81
2023/03/29 13:13:31;;;;;;;20.33;14.45;;;;;;;;;;4961840;29;20183;-81
2023/03/29 13:16:08;;;;;;;25.33;14.90;;;;;;;;;;4961537;28;20027;-81
2023/03/29 13:18:50;;;;;;;21.20;14.77;;;;;;;;;;4961743;29;20035;-81
2023/03/29 13:21:23;;;;;;;22.20;16.63;;;;;;;;;;4953507;29;20074;-81
2023/03/29 13:24:01;;;;;;;24.35;15.90;;;;;;;;;;4961427;28;20357;-81
2023/03/29 13:26:27;;;;;;;24.42;15.63;;;;;;;;;;4962911;29;20059;-81
2023/03/29 13:29:08;;;;;;;22.98;15.88;;;;;;;;;;4965856;29;20019;-81
2023/03/29 13:31:55;;;;;;;25.45;15.73;;;;;;;;;;4965034;29;20039;-81
2023/03/29 13:34:30;;;;;;;21.70;16.20;;;;;;;;;;4957968;29;20560;-81
2023/03/29 13:36:59;;;;;;;26.65;17.42;;;;;;;;;;4958899;29;20034;-81
2023/03/29 13:39:31;;;;;;;24.15;16.58;;;;;;;;;;4959194;29;20027;-80
2023/03/29 13:42:07;;;;;;;21.98;16.38;;;;;;;;;;4968926;28;20031;-80
2023/03/29 13:44:43;;;;;;;24.23;17.40;;;;;;;;;;4963815;28;20106;-81
2023/03/29 13:47:28;;;;;;;24.77;17.90;;;;;;;;;;4963707;28;20063;-81
2023/03/29 13:49:57;;;;;;;27.67;18.33;;;;;;;;;;4965623;29;20047;-81
2023/03/29 13:52:22;;;;;;;24.33;17.63;;;;;;;;;;4952688;29;20546;-81
2023/03/29 13:54:56;;;;;;;26.52;16.95;;;;;;;;;;4963323;29;20031;-81
2023/03/29 13:57:26;;;;;;;23.38;16.20;;;;;;;;;;4966006;29;20058;-81
2023/03/29 14:00:16;;;;;;;27.23;17.80;;;;;;;;;;4971602;29;20023;-81
2023/03/29 14:02:51;;;;;;;23.70;16.60;;;;;;;;;;4966268;28;20022;-81
2023/03/29 14:05:19;;;;;;;26.13;17.90;;;;;;;;;;4965149;28;20026;-80
2023/03/29 14:07:53;;;;;;;26.15;18.17;;;;;;;;;;4968968;29;20375;-80
2023/03/29 14:10:22;;;;;;;28.02;18.38;;;;;;;;;;4954667;28;20476;-80
2023/03/29 14:12:48;;;;;;;24.33;17.43;;;;;;;;;;4959606;28;20027;-80
2023/03/29 14:15:22;;;;;;;26.55;18.77;;;;;;;;;;4958920;29;20798;-80
2023/03/29 14:17:49;;;;;;;30.38;19.85;;;;;;;;;;4960360;28;20034;-80
2023/03/29 14:20:15;;;;;;;26.85;18.52;;;;;;;;;;4958498;29;20030;-80
2023/03/29 14:22:42;;;;;;;33.92;19.30;;;;;;;;;;4956969;29;20066;-80
2023/03/29 14:25:16;;;;;;;23.77;17.02;;;;;;;;;;4961802;29;20056;-80
2023/03/29 14:27:42;;;;;;;25.85;17.80;;;;;;;;;;4958371;29;20427;-81
2023/03/29 14:30:22;;;;;;;25.67;17.67;;;;;;;;;;4959799;28;20341;-80
2023/03/29 14:32:50;;;;;;;23.83;16.23;;;;;;;;;;4956828;28;20033;-80
2023/03/29 14:35:17;;;;;;;25.05;16.48;;;;;;;;;;4956756;28;20019;-80
2023/03/29 14:37:43;;;;;;;24.33;16.98;;;;;;;;;;4958773;28;20020;-80
2023/03/29 14:40:17;;;;;;;26.23;16.35;;;;;;;;;;4958897;29;20030;-80
2023/03/29 14:42:43;;;;;;;21.67;15.98;;;;;;;;;;4959053;28;20023;-80